Kivalina, AK

6:52 AM AKST on February 27, 2017 (GMT -0900)
Kivalina | | Change Station

Elev 10 ft 67.73 °N, 164.55 °W | Updated 18 minutes ago

Snow
Snow
4 °F
Feels Like -14 °F
N
14
Wind Variable Wind from NW

Today
High -- | Low -- °F
--% Chance of Precip.
Yesterday
High -- | Low -- °F
Precip. -- in
Pressure 30.06 in
Visibility 2.5 miles
Clouds Few 1600 ft
Overcast 2400 ft
Windchill -14 °F
Dew Point 0 °F
Humidity 84%
Rainfall 0.00 in
Snow Depth Not available.
9:22 AM 7:00 PM
New Moon, 1% visible
SPECI PAVL 271534Z AUTO 31012KT 2 1/2SM -SN BR FEW016 OVC024 M16/M18 A3006 RMK AO2 SNB04 P0000 T11561178 TSNO $
Pressure 30.06 in
Visibility 2.5 miles
Clouds Few 1600 ft
Overcast 2400 ft
Windchill -14 °F
Dew Point 0 °F
Humidity 84%
Rainfall 0.00 in
Snow Depth Not available.
9:22 AM 7:00 PM
New Moon, 1% visible
SPECI PAVL 271534Z AUTO 31012KT 2 1/2SM -SN BR FEW016 OVC024 M16/M18 A3006 RMK AO2 SNB04 P0000 T11561178 TSNO $

Get Your Daily Forecast Email!

Thanks for signing up!

Be on the lookout for a verification email in your inbox.

You'll start receiving the daily forecast at 8 AM.

×

10-Day Weather Forecast

Almanac

Astronomy

Feb. 27, 2017 Rise Set
Actual Time
Civil Twilight
Nautical Twilight
Astronomical Twilight
Moon
Length of Visible Light
Length of Day
Tomorrow will be .
, % of the Moon is Illuminated

Today's Extremes

State Highs State Lows

Community

WunderPhotos

Upload Photos

1,962,540 photos uploaded!

WunderBlog® & News

Nearby

Air Quality

  Air Quality AQ Index Pollutant
Not available.

Snow Depth

Station Depth Elevation

Earthquake Activity

City Distance Mag. Time & Date
Minimum magnitude displayed is 2.5.

Coastal Water Temperatures

Place Temperature

Stations

Nearby Weather Stations

Station Location Temp. Windchill Dew Point Humidity Wind Precip. Elev Updated Type
                   

Watches & Warnings

There are currently no watches in effect.